Date,TemperatureHighF,TemperatureAvgF,TemperatureLowF,DewpointHighF,DewpointAvgF,DewpointLowF,HumidityHigh,HumidityAvg,HumidityLow,PressureMaxIn,PressureMinIn,WindSpeedMaxMPH,WindSpeedAvgMPH,GustSpeedMaxMPH,PrecipitationSumIn
2012-1-1,81,69,59,67,61,58,96,79,49,30.26,30.15,4,0,0,0.00
2012-1-2,78,66,55,66,59,43,96,80,59,30.19,30.04,6,1,0,0.00
2012-1-3,55,50,40,46,30,13,77,50,20,30.37,30.16,9,2,0,0.00
2012-1-4,66,51,39,51,37,24,72,60,53,30.40,30.25,6,1,0,0.00
2012-1-5,68,55,44,46,37,26,86,54,21,30.30,30.18,6,1,0,0.00
2012-1-6,73,58,45,56,50,43,95,77,48,30.23,30.13,6,0,0,0.00
2012-1-7,77,64,52,60,53,46,95,72,34,30.20,30.10,5,0,0,0.00
2012-1-8,79,64,53,61,56,51,95,75,47,30.23,30.14,6,1,0,0.00
2012-1-9,79,68,60,66,61,56,94,79,60,30.19,30.09,6,1,0,0.00
2012-1-10,80,68,58,67,59,56,94,76,51,30.10,29.97,8,1,0,0.00
2012-1-11,75,69,60,68,64,58,95,85,73,29.98,29.80,11,1,0,0.00
2012-1-12,79,71,65,67,65,62,96,82,64,29.98,29.84,5,0,0,0.00
2012-1-13,71,67,61,64,61,55,89,81,64,30.16,29.97,4,0,0,0.00
2012-1-14,62,56,51,54,44,37,78,64,52,30.34,30.15,8,1,0,0.00
2012-1-15,71,57,43,46,40,28,74,56,30,30.42,30.31,7,1,0,0.00
2012-1-16,73,64,54,58,53,44,83,67,52,30.41,30.30,9,2,0,0.00
2012-1-17,79,70,61,63,59,55,87,71,53,30.30,30.16,7,1,0,0.00
2012-1-18,81,69,58,67,61,56,96,78,49,30.16,29.98,6,0,0,0.00
2012-1-19,77,67,58,62,57,52,93,72,42,30.13,29.99,7,1,0,0.00
2012-1-20,78,66,54,62,56,51,95,73,48,30.19,30.10,6,0,0,0.00
2012-1-21,81,68,57,63,59,55,94,75,50,30.15,30.04,7,1,0,0.00
2012-1-22,80,70,58,66,61,56,93,75,52,30.12,30.05,7,1,0,0.00
2012-1-23,80,73,67,68,66,64,93,79,60,30.12,30.06,8,2,0,0.00
2012-1-24,80,70,63,71,65,62,96,85,66,30.16,30.08,5,0,0,0.06
2012-1-25,80,73,66,70,67,63,94,81,68,30.17,30.08,7,1,0,0.00
2012-1-26,81,74,70,69,67,65,88,79,64,30.11,29.99,17,3,0,0.02
2012-1-27,86,76,70,72,68,66,91,77,53,30.05,29.94,7,1,0,0.00
2012-1-28,82,73,66,69,66,64,94,80,59,30.14,30.04,4,0,0,0.00
2012-1-29,76,70,64,65,63,59,90,78,64,30.24,30.11,5,1,0,0.00
2012-1-30,77,68,60,62,60,58,94,75,56,30.29,30.20,8,2,0,0.00
2012-1-31,77,71,67,64,61,59,82,71,61,30.30,30.21,7,2,0,0.00
2012-2-1,81,73,69,67,65,63,86,76,62,30.23,30.13,7,1,0,0.00
2012-2-2,74,70,66,71,67,64,95,91,87,30.15,30.06,3,0,0,0.02
2012-2-3,78,72,65,69,66,62,92,82,69,30.19,30.10,11,2,0,0.09
2012-2-4,78,73,71,70,67,65,91,82,74,30.15,30.05,14,2,0,0.03
2012-2-5,81,74,67,70,68,65,95,83,66,30.05,29.97,12,1,0,0.00
2012-2-6,76,71,68,72,69,66,96,92,83,30.06,29.97,8,0,0,1.52
2012-2-7,82,74,69,73,70,68,96,90,75,30.01,29.91,4,0,0,0.05
2012-2-8,78,71,68,69,67,63,96,87,72,30.04,29.95,6,1,0,0.00
2012-2-9,77,71,67,68,66,62,89,83,71,30.09,29.99,8,2,0,0.02
2012-2-10,83,74,70,74,70,68,95,88,68,30.05,29.87,7,1,0,0.61
2012-2-11,71,66,55,68,60,47,96,79,61,30.06,29.86,9,3,0,0.25
2012-2-12,61,53,46,47,41,32,82,65,50,30.25,30.06,12,3,0,0.00
2012-2-13,72,58,45,55,47,42,91,69,46,30.22,30.11,5,0,0,0.00
2012-2-14,77,67,55,62,58,53,95,75,56,30.13,30.06,9,1,0,0.00
2012-2-15,82,69,60,67,62,58,96,79,56,30.19,30.11,6,1,0,0.00
2012-2-16,82,71,64,68,65,62,95,81,59,30.18,30.07,6,1,0,0.00
2012-2-17,83,72,66,69,66,63,96,81,61,30.08,29.98,6,0,0,0.00
2012-2-18,82,74,65,69,66,63,94,79,60,30.01,29.89,7,1,0,0.00
2012-2-19,87,76,68,73,70,66,95,81,57,29.94,29.82,8,1,0,0.00
2012-2-20,78,67,60,66,58,56,89,74,51,30.15,29.93,6,1,0,0.00
2012-2-21,79,68,59,61,58,55,90,72,50,30.20,30.11,6,0,0,0.00
2012-2-22,84,71,60,66,63,58,94,77,53,30.12,29.94,7,1,0,0.00
2012-2-23,88,74,63,70,65,61,96,75,48,30.00,29.90,7,0,0,0.01
2012-2-24,90,77,67,73,69,64,96,78,48,30.03,29.94,7,1,0,0.00
2012-2-25,81,73,69,73,67,63,96,82,65,30.18,30.00,9,2,0,0.01
2012-2-26,76,72,68,69,66,64,86,81,76,30.25,30.16,8,3,0,0.00
2012-2-27,84,77,73,72,70,68,87,79,64,30.27,30.18,10,3,0,0.00
2012-2-28,85,76,70,72,69,67,94,79,60,30.24,30.16,7,1,0,0.00
2012-2-29,83,76,72,71,70,68,90,80,65,30.20,30.09,9,2,0,0.03
2012-3-1,82,75,69,72,69,66,95,82,66,30.12,30.00,9,1,0,0.00
2012-3-2,85,76,67,72,68,65,96,79,58,30.05,29.96,9,2,0,0.00
2012-3-3,86,77,72,73,70,68,89,80,63,29.98,29.85,11,3,0,0.00
2012-3-4,82,69,55,74,58,36,91,70,39,30.18,29.82,15,3,0,0.10
2012-3-5,76,63,50,56,48,36,83,58,45,30.33,30.18,12,1,0,0.00
2012-3-6,79,68,55,62,57,53,92,70,49,30.36,30.27,14,4,0,0.00
2012-3-7,78,73,69,67,64,58,84,73,67,30.34,30.25,13,4,0,0.02
2012-3-8,78,72,69,71,68,66,94,87,74,30.26,30.15,13,2,0,0.94
2012-3-9,82,76,72,70,69,67,90,79,66,30.19,30.08,14,2,0,0.00
2012-3-10,84,75,68,71,69,67,95,81,59,30.17,30.07,8,1,0,0.03
2012-3-11,83,75,69,69,67,65,94,77,57,30.25,30.15,10,3,0,1.12
2012-3-12,81,74,70,65,63,60,85,69,52,30.28,30.18,8,2,0,0.02
2012-3-13,82,73,64,63,62,60,85,68,50,30.23,30.15,6,1,0,0.00
2012-3-14,82,73,64,68,64,61,93,75,57,30.20,30.10,11,2,0,0.00
2012-3-15,82,75,70,69,67,63,85,75,60,30.20,30.10,8,2,0,0.00
2012-3-16,84,75,71,67,65,63,84,71,50,30.20,30.11,12,2,0,0.00
2012-3-17,84,75,63,66,63,60,93,69,51,30.20,30.12,6,1,0,0.00
2012-3-18,83,74,64,67,64,60,91,74,55,30.21,30.12,8,1,0,0.00
2012-3-19,83,74,68,67,64,59,89,70,51,30.16,30.06,7,1,0,0.02
2012-3-20,82,75,69,68,65,64,89,72,56,30.10,30.01,8,2,0,0.01
2012-3-21,83,77,73,70,68,66,87,75,61,30.14,30.03,11,4,0,0.01
2012-3-22,84,77,73,69,68,65,83,73,55,30.16,30.07,9,2,0,0.00
2012-3-23,85,77,69,68,65,63,86,69,51,30.12,30.02,7,1,0,0.00
2012-3-24,86,75,66,68,65,63,94,73,49,30.04,29.93,7,2,0,0.00
2012-3-25,85,76,68,70,67,64,92,74,53,29.96,29.80,8,1,0,0.00
2012-3-26,85,73,63,63,58,52,90,64,34,29.99,29.87,6,1,0,0.00
2012-3-27,83,74,66,68,64,60,90,73,51,30.16,29.97,9,2,0,0.01
2012-3-28,82,75,71,66,64,60,78,68,56,30.16,30.06,8,2,0,0.00
2012-3-29,84,73,64,66,63,61,93,73,49,30.08,29.98,8,0,0,0.00
2012-3-30,84,72,62,65,62,60,95,72,50,30.08,29.98,7,1,0,0.00
2012-3-31,89,74,65,71,67,63,95,81,50,30.02,29.87,10,1,0,0.64
2012-4-1,88,76,68,70,68,63,97,77,43,29.95,29.84,4,1,0,0.00
2012-4-2,90,78,66,71,67,61,96,73,38,29.92,29.84,5,0,0,0.00
2012-4-3,91,78,66,70,67,64,93,73,42,29.97,29.89,7,1,0,0.00
2012-4-4,89,77,70,73,70,67,96,79,51,29.98,29.82,8,1,0,0.00
2012-4-5,89,77,70,70,67,63,92,74,43,29.89,29.73,11,1,0,0.01
2012-4-6,88,78,72,74,69,62,95,77,48,29.89,29.73,12,2,0,0.03
2012-4-7,81,73,66,69,64,60,94,75,55,30.09,29.88,11,2,0,0.00
2012-4-8,82,73,67,62,59,57,76,63,46,30.15,30.07,6,1,0,0.00
2012-4-9,82,72,63,64,62,59,93,71,51,30.08,29.99,9,1,0,0.00
2012-4-10,85,73,64,65,61,59,94,69,42,30.08,29.98,8,1,0,0.00
2012-4-11,88,76,64,67,63,60,91,67,40,30.05,29.94,5,1,0,0.00
2012-4-12,87,74,64,68,64,59,90,72,39,30.04,29.95,6,1,0,0.00
2012-4-13,82,74,68,70,68,65,92,81,63,30.11,30.00,6,1,0,0.83
2012-4-14,80,74,70,68,64,61,92,71,56,30.22,30.08,13,4,0,0.01
2012-4-15,81,75,70,65,61,58,68,62,49,30.20,30.14,9,2,0,0.00
2012-4-16,83,77,73,64,61,56,69,58,47,30.20,30.10,14,3,0,0.00
2012-4-17,85,77,72,65,63,59,78,62,42,30.16,30.06,6,2,0,0.00
2012-4-18,84,76,68,68,66,64,89,70,55,30.10,29.97,8,1,0,0.00
2012-4-21,76,72,69,71,66,-100,96,86,75,29.84,29.67,10,-9,4,0.06
2012-4-22,83,74,66,72,67,63,94,78,53,29.73,29.55,8,2,0,0.12
2012-4-23,81,70,61,64,56,50,88,64,39,29.91,29.72,12,2,4,0.00
2012-4-24,76,66,56,55,46,38,85,52,26,30.03,29.89,7,1,13,0.00
2012-4-25,82,69,54,59,53,47,87,58,39,30.12,30.02,4,1,13,0.00
2012-4-26,84,72,60,64,61,57,94,71,46,30.14,30.06,4,1,12,0.00
2012-4-27,85,75,64,70,66,62,93,75,55,30.12,30.04,4,1,12,0.00
2012-4-28,81,74,66,74,70,64,96,87,65,30.08,30.01,5,1,15,0.76
2012-4-29,76,73,70,72,70,67,96,90,73,30.07,29.99,6,2,14,0.22
2012-4-30,76,73,70,73,70,68,95,90,83,30.05,29.98,7,3,22,0.00
2012-5-1,82,75,72,75,71,68,95,87,76,30.07,29.99,7,3,23,0.02
2012-5-2,85,78,74,73,71,69,88,79,64,30.09,29.99,6,2,16,0.27
2012-5-3,87,79,73,73,70,68,87,76,61,30.09,30.02,6,2,13,0.00
2012-5-4,87,79,71,70,69,66,89,73,52,30.09,30.00,4,1,9,0.00
2012-5-5,89,79,69,72,69,67,94,74,53,30.02,29.93,4,1,11,0.00
2012-5-6,90,78,78,70,70,67,76,76,59,29.98,29.88,7,0,5,0.00
2012-5-7,90,81,70,73,70,67,93,72,49,29.94,29.83,6,1,17,0.13
2012-5-8,88,75,70,74,70,66,95,85,54,29.92,29.86,6,0,13,0.04
2012-5-9,90,77,70,75,72,68,96,84,55,29.91,29.79,5,1,14,0.05
2012-5-10,93,79,72,76,72,69,95,83,51,29.90,29.76,4,1,11,1.06
2012-5-11,88,78,70,76,72,70,97,83,64,30.08,29.87,5,2,17,0.01
2012-5-12,86,80,76,72,70,68,83,74,58,30.16,30.05,6,2,19,0.00
2012-5-13,85,78,73,73,71,68,92,78,65,30.12,30.00,5,2,16,0.33
2012-5-14,88,78,72,76,73,70,96,86,65,30.05,29.93,4,1,13,0.10
2012-5-15,89,78,72,77,74,69,97,87,65,30.01,29.92,7,1,17,0.19
2012-5-16,82,76,71,76,72,70,97,88,73,30.02,29.91,1,0,6,0.02
2012-5-17,85,77,69,75,72,67,96,84,68,29.97,29.85,5,1,13,0.74
2012-5-18,89,76,72,74,71,68,97,85,59,29.93,29.84,6,0,14,0.21
2012-5-19,88,75,70,75,71,69,96,88,61,29.96,29.87,5,0,14,0.06
2012-5-20,90,78,71,74,72,69,97,81,60,29.96,29.88,3,0,8,0.01
2012-5-21,91,79,70,75,72,68,94,79,55,29.97,29.90,4,0,12,0.17
2012-5-22,88,77,72,76,72,70,95,88,61,29.97,29.89,6,1,15,0.34
2012-5-23,88,78,74,76,73,71,94,84,65,29.92,29.84,5,1,13,0.12
2012-5-24,83,75,72,77,73,70,96,91,76,29.89,29.81,4,0,13,0.48
2012-5-25,92,80,71,76,73,70,98,81,58,30.01,29.87,4,1,12,0.00
2012-5-26,91,81,74,76,74,72,97,81,56,30.02,29.94,3,1,11,0.00
2012-5-27,93,80,73,76,73,68,97,82,47,29.96,29.84,7,1,16,0.86
2012-5-28,90,80,72,77,74,70,95,84,64,29.97,29.88,8,2,18,0.25
2012-5-29,88,77,74,78,74,70,97,90,67,29.96,29.88,13,1,2,0.19
2012-5-30,94,82,72,78,74,69,98,78,46,29.94,29.81,6,2,13,0.10
2012-5-31,88,79,74,77,74,72,96,87,61,29.95,29.86,8,1,13,0.04
2012-6-1,80,75,73,77,74,71,97,96,87,29.98,29.89,5,0,5,1.09
2012-6-2,90,82,75,80,76,72,96,82,67,29.97,29.88,5,0,0,0.36
2012-6-3,93,82,73,76,72,66,96,74,43,30.03,29.93,9,1,0,0.00
2012-6-4,94,84,74,79,74,71,92,74,50,29.99,29.86,5,1,0,0.00
2012-6-5,91,82,77,79,76,70,96,82,60,29.89,29.81,6,0,0,0.01
2012-6-6,87,82,77,79,76,70,93,82,61,29.95,29.87,6,0,0,0.00
2012-6-7,96,86,80,80,77,73,94,76,48,29.96,29.90,5,0,0,0.00
2012-6-8,91,81,75,79,76,73,95,85,61,29.97,29.89,7,0,0,0.61
2012-6-9,91,81,75,79,77,74,96,87,68,30.02,29.92,7,1,0,0.07
2012-6-10,92,84,77,80,77,75,97,82,63,30.11,29.98,7,1,0,0.00
2012-6-11,90,83,77,76,73,69,91,73,53,30.10,30.03,6,1,0,0.00
2012-6-12,90,81,74,71,69,67,85,68,49,30.07,29.96,5,0,0,0.00
2012-6-13,92,82,72,74,71,67,96,73,48,29.98,29.87,5,1,0,0.00
2012-6-14,94,82,73,79,75,70,95,80,54,29.98,29.88,5,0,0,0.02
2012-6-15,92,80,74,78,74,71,96,83,62,30.01,29.90,6,1,0,0.65
2012-6-16,90,82,75,75,72,69,92,73,54,30.02,29.93,9,2,0,0.00
2012-6-17,88,80,72,72,69,65,90,69,52,30.02,29.93,8,1,0,0.00
2012-6-18,89,82,76,71,69,67,78,66,51,30.02,29.93,8,2,0,0.00
2012-6-19,86,81,78,76,72,68,88,76,65,30.03,29.96,12,2,0,0.05
2012-6-20,83,77,74,76,74,72,96,91,73,30.00,29.93,8,1,0,0.60
2012-6-21,90,81,75,78,75,73,96,83,66,29.98,29.86,9,1,0,0.10
2012-6-22,86,79,74,78,75,73,96,89,71,29.94,29.83,7,1,0,0.95
2012-6-23,86,78,73,79,75,71,97,90,77,30.00,29.85,8,2,0,0.85
2012-6-24,82,78,74,79,76,72,96,93,87,29.98,29.85,10,3,0,0.14
2012-6-25,91,84,81,78,77,74,88,78,60,29.85,29.75,12,4,0,0.00
2012-6-26,93,85,78,77,75,72,91,74,55,29.77,29.70,12,4,0,0.08
2012-6-27,92,85,78,80,77,74,90,78,59,29.98,29.75,7,2,0,0.00
2012-6-28,91,82,74,76,73,70,89,74,59,30.06,29.98,6,0,0,0.00
2012-6-29,96,78,75,74,59,-100,91,64,45,30.04,29.93,7,-51,0,0.01
2012-6-30,94,85,76,76,73,71,90,70,48,30.00,29.92,8,2,0,0.00
2012-7-1,94,84,76,76,74,71,93,72,51,30.07,29.97,10,2,0,0.00
2012-7-2,95,84,76,78,74,68,95,74,44,30.10,29.98,11,2,0,0.00
2012-7-3,93,85,76,76,74,72,94,72,51,30.06,29.98,9,2,0,0.00
2012-7-4,92,84,78,78,75,70,93,77,59,30.09,30.00,10,1,0,0.00
2012-7-5,92,83,76,77,74,72,92,76,54,30.05,29.97,8,2,0,0.06
2012-7-6,93,84,77,77,74,71,94,73,53,30.04,29.99,8,2,0,0.00
2012-7-7,92,84,77,77,75,71,91,74,51,30.08,30.01,12,2,0,0.00
2012-7-8,91,84,78,77,75,72,94,77,53,30.07,30.00,8,1,0,0.00
2012-7-9,91,83,76,77,75,73,95,76,56,30.05,29.96,6,2,0,0.00
2012-7-10,91,84,77,78,75,72,91,76,56,30.03,29.94,13,2,0,0.00
2012-7-11,85,78,72,74,73,70,95,85,66,30.07,29.94,7,1,0,0.89
2012-7-12,91,81,76,76,74,70,93,79,50,30.03,29.95,11,1,0,0.00
2012-7-13,89,82,74,76,74,71,93,76,58,30.04,29.97,9,2,0,0.02
2012-7-14,88,82,78,77,74,72,92,77,61,30.07,29.97,13,2,0,0.18
2012-7-15,91,80,74,75,74,71,96,82,53,30.11,30.02,8,2,0,0.37
2012-7-16,86,77,72,77,74,71,95,90,70,30.10,29.98,7,1,0,0.96
2012-7-17,94,78,74,78,74,71,96,87,55,30.04,29.96,8,1,0,0.65
2012-7-18,95,83,73,78,75,71,96,77,45,30.12,29.99,7,2,0,0.00
2012-7-19,92,85,77,79,76,73,97,76,55,30.17,30.09,9,2,0,0.00
2012-7-20,92,85,78,77,76,74,92,76,57,30.13,30.03,9,2,0,0.00
2012-7-21,91,86,81,78,77,76,86,76,63,30.09,30.02,10,3,0,0.00
2012-7-22,88,80,73,79,75,71,96,85,70,30.12,30.02,13,2,0,1.60
2012-7-23,91,81,74,78,75,70,96,83,60,30.16,30.08,9,2,0,0.35
2012-7-24,94,84,76,80,77,67,94,81,60,30.13,30.02,7,2,0,0.08
2012-7-25,97,85,76,79,76,73,96,76,46,30.05,29.97,8,1,0,0.00
2012-7-26,95,85,76,77,75,73,95,73,49,30.04,29.97,8,2,0,0.00
2012-7-27,93,85,77,78,75,72,95,74,51,30.09,29.98,11,2,0,0.00
2012-7-28,93,83,74,78,75,71,96,78,55,30.11,30.02,9,1,0,1.78
2012-7-29,94,84,75,78,74,71,97,73,52,30.08,29.99,8,2,0,0.00
2012-7-30,96,84,76,76,73,69,95,73,49,30.05,29.96,7,1,0,0.00
2012-7-31,95,84,74,77,73,69,90,71,45,30.05,29.95,9,2,0,0.00
2012-8-1,98,84,73,77,74,70,94,77,41,30.02,29.92,8,1,0,0.62
2012-8-2,96,84,77,79,77,73,97,79,49,29.99,29.91,6,1,0,0.01
2012-8-3,92,80,76,79,76,74,96,87,64,30.01,29.91,7,1,0,0.77
2012-8-4,91,82,76,78,76,75,97,82,61,30.05,29.93,11,2,0,0.00
2012-8-5,91,85,78,79,76,74,88,76,61,30.07,30.00,8,2,0,0.15
2012-8-6,88,81,75,79,76,73,95,87,71,30.06,29.98,15,2,0,1.47
2012-8-7,92,84,74,79,76,72,96,79,55,30.04,29.95,8,2,0,0.10
2012-8-8,93,86,79,79,77,75,92,76,58,30.04,29.96,8,2,0,0.00
2012-8-9,92,86,79,79,77,75,90,75,61,30.01,29.91,8,2,0,0.00
2012-8-10,87,81,78,78,75,73,92,82,69,29.99,29.92,7,2,0,0.09
2012-8-11,93,81,73,77,74,71,95,80,55,30.03,29.92,12,2,0,0.41
2012-8-12,95,81,75,79,76,73,97,87,53,30.05,29.97,8,1,0,1.98
2012-8-13,92,83,76,80,77,75,98,83,60,30.06,29.98,6,1,0,0.01
2012-8-14,94,84,77,79,77,74,95,79,54,30.05,29.95,7,1,0,0.00
2012-8-15,94,85,78,79,77,75,96,78,55,30.03,29.96,6,2,0,0.00
2012-8-16,94,84,78,79,77,74,95,79,53,30.07,29.98,6,1,0,0.00
2012-8-17,98,83,76,78,75,71,97,78,42,30.05,29.92,9,1,0,0.05
2012-8-18,98,81,74,78,75,71,97,83,46,30.00,29.91,13,1,0,1.00
2012-8-19,96,85,77,78,77,73,96,78,47,30.00,29.90,9,2,0,0.00
2012-8-20,94,84,77,79,76,72,96,79,55,30.01,29.90,10,2,0,0.26
2012-8-21,94,82,76,77,75,72,96,80,49,30.08,29.96,8,2,0,0.47
2012-8-22,94,80,74,79,74,68,97,82,59,30.09,30.00,8,1,0,0.00
2012-8-23,93,84,75,79,75,71,95,76,56,30.07,30.00,8,2,0,0.00
2012-8-24,90,81,72,77,74,69,95,80,61,30.02,29.92,10,2,0,1.60
2012-8-25,86,79,72,79,74,68,96,86,75,29.96,29.87,8,2,0,0.39
2012-8-26,84,79,75,78,76,72,96,90,77,29.87,29.70,23,7,0,3.88
2012-8-27,85,80,76,80,77,74,96,91,84,29.94,29.72,28,9,0,2.18
2012-8-28,92,83,79,80,77,75,94,84,67,30.00,29.91,11,3,0,0.01
2012-8-29,92,84,78,79,77,75,93,79,63,30.00,29.91,11,3,0,0.00
2012-8-30,92,84,76,78,76,75,97,78,58,30.09,29.95,9,2,0,0.00
2012-8-31,92,84,78,79,76,71,95,79,53,30.14,30.05,4,1,0,0.00
2012-9-1,91,84,77,79,76,74,95,79,62,30.10,30.01,12,2,0,0.04
2012-9-2,89,83,76,75,72,69,84,72,57,30.03,29.96,11,2,0,0.00
2012-9-3,90,82,75,76,74,72,94,77,56,30.04,29.96,8,2,0,0.00
2012-9-4,90,81,75,77,74,66,95,79,58,30.03,29.93,8,1,0,0.02
2012-9-5,92,77,71,76,69,-100,96,82,56,30.01,29.91,14,-20,0,2.14
2012-9-6,89,78,71,79,74,68,97,87,64,30.03,29.95,13,1,0,1.51
2012-9-7,92,80,73,78,74,70,97,82,57,30.00,29.91,6,1,0,1.41
2012-9-8,96,84,74,78,74,67,95,74,41,29.97,29.87,10,1,0,0.00
2012-9-9,95,85,77,78,75,71,93,72,45,29.97,29.88,6,1,0,0.00
2012-9-10,93,82,77,79,76,74,94,82,60,30.00,29.92,7,1,0,0.72
2012-9-11,90,81,76,78,76,74,96,86,63,30.05,29.96,7,1,0,0.74
2012-9-12,88,82,76,76,74,71,94,77,66,30.06,29.98,19,4,0,0.18
2012-9-13,85,82,76,76,74,73,94,79,69,30.06,29.96,12,3,0,0.10
2012-9-14,90,81,74,77,74,72,94,82,62,30.02,29.94,14,2,0,0.02
2012-9-15,88,80,75,78,74,72,95,84,68,30.04,29.96,8,1,0,0.05
2012-9-16,87,80,75,77,74,71,93,83,65,30.04,29.95,6,1,0,0.26
2012-9-17,89,81,74,77,75,72,97,82,62,30.01,29.91,8,2,0,0.05
2012-9-18,95,84,76,78,76,74,94,77,52,29.98,29.88,7,2,0,0.26
2012-9-19,94,82,75,78,76,74,96,82,53,30.04,29.91,5,1,0,0.00
2012-9-20,91,82,75,78,74,72,95,78,59,30.04,29.91,7,2,0,0.00
2012-9-21,90,79,73,76,74,69,95,85,55,29.97,29.89,6,1,0,1.05
2012-9-22,85,76,73,76,74,71,97,93,74,30.01,29.91,7,0,0,0.84
2012-9-23,84,78,75,77,75,72,97,89,74,30.04,29.97,6,0,0,0.37
2012-9-24,88,79,74,76,73,71,97,83,62,30.05,29.97,5,1,0,0.00
2012-9-25,87,80,74,76,73,70,90,81,66,30.06,29.97,6,1,0,0.00
2012-9-26,88,81,76,77,75,73,93,82,61,30.07,29.99,5,1,0,0.00
2012-9-27,92,82,74,78,75,70,94,79,52,30.07,29.97,5,1,0,0.11
2012-9-28,89,79,75,78,75,73,97,87,64,30.02,29.91,7,0,0,0.01
2012-9-29,91,81,74,77,75,72,96,82,61,29.96,29.84,6,1,0,0.00
2012-9-30,92,82,75,78,75,74,97,80,59,29.89,29.78,8,2,0,0.00
2012-10-1,88,80,75,79,75,73,96,86,68,29.86,29.76,7,2,0,1.01
2012-10-2,89,79,74,80,75,73,96,89,69,30.05,29.85,10,1,0,2.02
2012-10-3,91,82,76,80,77,74,97,84,64,30.16,30.03,8,2,0,0.01
2012-10-4,91,84,80,79,77,75,92,80,60,30.14,30.04,10,2,0,0.00
2012-10-5,91,84,79,78,76,74,93,79,62,30.08,29.92,8,2,0,0.00
2012-10-6,90,81,76,78,76,73,95,84,65,29.97,29.84,9,1,0,0.06
2012-10-7,86,79,74,79,75,72,95,88,70,29.96,29.86,11,1,0,0.20
2012-10-8,89,81,75,79,76,74,97,86,66,30.00,29.90,7,1,0,0.12
2012-10-9,90,82,76,77,76,72,97,83,57,30.00,29.93,7,1,0,0.01
2012-10-10,88,80,76,78,75,72,96,84,67,30.05,29.96,11,2,0,0.03
2012-10-11,86,80,72,73,70,67,95,74,56,30.10,30.02,9,3,0,0.00
2012-10-12,85,79,73,68,66,64,82,66,49,30.10,30.02,10,3,0,0.00
2012-10-13,84,78,71,73,68,65,94,73,54,30.09,30.01,15,4,0,0.20
2012-10-14,85,81,79,76,74,68,85,77,68,30.04,29.92,14,4,0,0.00
2012-10-15,89,82,76,75,74,71,89,77,60,29.93,29.77,9,2,0,0.00
2012-10-16,88,79,73,75,72,70,95,79,55,29.83,29.75,5,1,0,0.00
2012-10-17,88,75,70,76,69,-100,96,85,65,29.89,29.79,9,-20,0,0.72
2012-10-18,92,80,72,79,75,71,98,84,57,29.86,29.79,6,1,0,0.00
2012-10-19,90,81,75,78,75,72,97,84,60,29.89,29.79,7,1,0,0.00
2012-10-20,88,79,74,75,73,71,96,82,58,29.92,29.83,6,1,0,0.00
2012-10-21,86,78,70,71,65,62,92,68,47,29.99,29.88,10,2,0,0.00
2012-10-22,84,78,68,69,66,63,87,68,54,30.01,29.94,14,3,0,0.00
2012-10-23,85,79,73,72,68,63,93,69,60,29.98,29.90,16,4,0,0.02
2012-10-24,85,80,73,73,72,69,94,77,60,29.95,29.82,15,5,0,0.09
2012-10-25,82,78,69,74,72,66,96,81,74,29.82,29.64,14,5,0,0.38
2012-10-26,80,74,69,73,70,67,96,86,71,29.63,29.46,18,6,0,0.72
2012-10-27,82,74,68,68,65,63,88,74,56,29.67,29.45,21,6,0,0.00
2012-10-28,81,72,67,67,63,57,94,75,53,29.77,29.65,12,4,0,0.00
2012-10-29,72,65,58,57,50,41,81,61,34,29.85,29.73,10,3,0,0.00
2012-10-30,73,62,54,52,47,39,81,60,41,29.99,29.81,11,2,0,0.00
2012-10-31,74,63,54,57,52,44,96,71,43,30.06,29.96,6,1,0,0.00
2012-11-1,80,68,57,64,60,55,96,76,52,30.06,29.95,4,0,0,0.00
2012-11-2,80,70,62,65,58,48,96,70,33,30.07,29.99,6,1,0,0.00
2012-11-3,84,68,56,63,58,49,95,72,31,30.13,30.04,5,1,0,0.00
2012-11-4,83,71,62,68,64,61,98,79,50,30.10,29.99,6,1,0,0.01
2012-11-5,78,71,65,66,63,58,94,78,51,30.00,29.91,4,0,0,0.00
2012-11-6,84,73,64,68,63,57,96,76,44,29.92,29.80,8,1,0,0.00
2012-11-7,71,66,58,65,56,49,94,73,55,29.97,29.82,13,2,0,0.00
2012-11-8,69,61,55,52,46,39,82,60,34,30.10,29.95,10,3,0,0.00
2012-11-9,75,66,56,59,53,51,84,65,47,30.19,30.08,10,2,0,0.00
2012-11-10,76,72,66,60,56,52,77,58,48,30.25,30.16,11,3,0,0.00
2012-11-11,81,76,72,66,61,56,73,60,44,30.23,30.16,18,4,0,0.00
2012-11-12,82,77,74,69,68,64,80,73,62,30.18,30.11,14,4,0,0.03
2012-11-13,81,76,67,68,66,63,92,72,54,30.13,30.03,8,2,0,0.00
2012-11-14,80,72,66,71,67,64,95,83,65,30.11,30.03,9,2,0,0.20
2012-11-15,82,72,64,68,65,62,96,81,56,30.08,30.02,6,1,0,0.00
2012-11-16,78,69,64,69,65,62,96,88,69,30.10,30.00,5,2,0,0.02
2012-11-17,80,72,65,67,66,64,97,82,62,30.08,30.01,10,2,0,0.21
2012-11-18,79,72,67,69,66,64,95,83,66,30.10,30.01,8,3,0,0.04
2012-11-19,72,65,59,63,59,57,93,83,68,30.11,30.00,6,2,0,0.00
2012-11-20,74,65,60,66,61,58,95,87,74,30.03,29.90,7,3,0,0.00
2012-11-21,76,66,58,64,58,54,94,77,52,30.02,29.91,10,3,0,0.00
2012-11-22,74,63,56,57,52,49,83,68,48,30.10,29.98,10,4,0,0.00
2012-11-23,77,64,55,59,55,50,88,72,45,30.13,30.03,7,2,0,0.00
2012-11-24,74,63,51,57,54,49,92,74,45,30.11,29.99,8,1,0,0.00
2012-11-25,79,64,54,60,56,52,95,76,44,30.12,30.04,4,1,0,0.00
2012-11-26,80,69,59,65,61,56,94,78,56,30.18,30.09,6,0,0,0.00
2012-11-27,81,71,62,67,64,61,96,80,57,30.18,30.07,8,1,0,0.00
2012-11-28,80,70,64,66,64,62,95,83,55,30.17,30.08,9,2,0,0.02
2012-11-29,78,70,61,66,63,60,96,80,62,30.20,30.13,14,3,0,0.05
2012-11-30,76,73,71,64,62,60,73,69,63,30.21,30.12,16,4,0,0.00
2012-12-1,78,74,70,65,63,62,78,70,60,30.18,30.11,10,3,0,0.00
2012-12-2,78,74,72,67,65,63,78,73,64,30.22,30.14,13,4,0,0.00
2012-12-3,78,73,68,65,61,50,84,66,50,30.23,30.15,12,2,0,0.00
2012-12-4,78,73,67,64,60,52,75,64,52,30.22,30.14,8,2,0,0.00
2012-12-5,80,74,68,66,64,60,83,71,51,30.13,30.00,9,2,0,0.00
2012-12-6,82,72,66,71,67,64,95,83,62,30.00,29.89,9,1,0,0.52
2012-12-7,82,72,65,71,67,64,97,85,62,29.97,29.89,7,1,0,0.20
2012-12-8,81,74,66,72,70,65,97,86,73,30.02,29.95,8,1,0,0.00
2012-12-9,87,76,69,75,72,68,97,88,68,30.08,29.97,5,1,0,0.00
2012-12-10,84,77,70,76,73,69,98,88,72,30.01,29.90,14,3,0,0.00
2012-12-11,89,79,71,77,74,69,94,85,63,30.04,29.90,9,2,0,0.02
2012-12-12,83,77,73,73,72,71,96,84,69,30.07,30.00,12,2,0,0.00
2012-12-13,77,72,65,74,69,63,97,90,80,30.09,30.00,8,2,0,0.00
2012-12-14,79,68,62,68,63,58,97,85,50,30.12,30.04,13,2,0,0.22
2012-12-15,78,71,66,68,62,-100,97,79,65,30.09,30.01,7,-20,0,0.08
2012-12-16,82,73,66,71,68,65,97,85,64,30.04,29.94,8,1,0,0.10
2012-12-17,84,73,65,70,67,64,98,83,56,29.97,29.88,4,0,0,0.00
2012-12-18,84,74,67,72,68,66,98,83,57,30.00,29.89,5,1,0,0.00
2012-12-19,84,71,60,67,62,56,94,75,47,30.08,29.99,7,1,0,0.00
2012-12-20,82,73,63,68,65,62,97,78,54,30.08,29.95,12,2,0,0.00
2012-12-21,71,63,51,69,51,37,93,67,36,30.16,29.93,19,4,0,0.00
2012-12-22,63,52,44,43,33,25,79,50,29,30.25,30.16,9,3,0,0.00
2012-12-23,73,59,47,57,47,34,86,64,48,30.24,30.13,5,1,0,0.00
2012-12-24,78,66,56,60,57,52,91,74,52,30.14,29.98,9,1,0,0.00
2012-12-25,79,69,58,65,61,57,96,78,55,30.04,29.92,7,2,0,0.00
2012-12-26,84,74,63,71,68,58,95,80,64,29.97,29.82,9,2,0,0.02
2012-12-27,70,60,52,58,50,43,92,73,39,30.06,29.97,7,1,0,0.01
2012-12-28,76,68,53,71,63,50,92,85,72,30.08,29.96,8,2,0,0.00
2012-12-29,83,74,62,74,70,54,96,85,66,30.09,29.91,10,2,0,0.00
2012-12-30,67,60,49,57,52,45,86,75,65,30.28,30.09,8,3,0,0.00
2012-12-31,74,69,65,61,58,55,73,68,63,30.30,30.19,12,3,0,0.00
2013-1-1,79,73,66,65,61,59,84,68,57,30.19,30.04,11,2,0,0.00